sensor_id;sensor_type;location;lat;lon;timestamp;pressure;altitude;pressure_sealevel;temperature;humidity
80798;BME280;70202;52.238;10.680;2024-03-06T00:00:46;100321.34;;;5.79;81.39
80798;BME280;70202;52.238;10.680;2024-03-06T00:01:47;100479.19;;;6.68;81.62
80798;BME280;70202;52.238;10.680;2024-03-06T00:02:48;100499.69;;;6.81;81.78
80798;BME280;70202;52.238;10.680;2024-03-06T00:03:48;100412.31;;;6.28;81.57
80798;BME280;70202;52.238;10.680;2024-03-06T00:04:48;100506.03;;;6.80;81.60
80798;BME280;70202;52.238;10.680;2024-03-06T00:05:49;100500.66;;;6.77;81.40
80798;BME280;70202;52.238;10.680;2024-03-06T00:06:49;100509.53;;;6.84;81.55
80798;BME280;70202;52.238;10.680;2024-03-06T00:07:52;100513.97;;;6.88;81.66
80798;BME280;70202;52.238;10.680;2024-03-06T00:08:52;100356.25;;;5.91;81.67
80798;BME280;70202;52.238;10.680;2024-03-06T00:09:52;100414.97;;;6.31;81.83
80798;BME280;70202;52.238;10.680;2024-03-06T00:10:53;100448.94;;;6.47;81.34
80798;BME280;70202;52.238;10.680;2024-03-06T00:11:54;100512.13;;;6.90;81.80
80798;BME280;70202;52.238;10.680;2024-03-06T00:12:54;100520.31;;;6.88;81.86
80798;BME280;70202;52.238;10.680;2024-03-06T00:13:55;100516.72;;;6.86;81.20
80798;BME280;70202;52.238;10.680;2024-03-06T00:14:55;100506.88;;;6.82;81.69
80798;BME280;70202;52.238;10.680;2024-03-06T00:15:56;100507.75;;;6.84;81.51
80798;BME280;70202;52.238;10.680;2024-03-06T00:16:56;100447.25;;;6.42;81.68
80798;BME280;70202;52.238;10.680;2024-03-06T00:17:57;100530.06;;;6.97;81.81
80798;BME280;70202;52.238;10.680;2024-03-06T00:18:58;100536.31;;;6.99;81.56
80798;BME280;70202;52.238;10.680;2024-03-06T00:19:59;100445.47;;;6.39;81.70
80798;BME280;70202;52.238;10.680;2024-03-06T00:20:59;100517.41;;;6.96;81.65
80798;BME280;70202;52.238;10.680;2024-03-06T00:22:00;100506.78;;;6.87;81.57
80798;BME280;70202;52.238;10.680;2024-03-06T00:23:01;100523.75;;;6.95;81.74
80798;BME280;70202;52.238;10.680;2024-03-06T00:24:02;100517.66;;;6.85;81.55
80798;BME280;70202;52.238;10.680;2024-03-06T00:25:04;100441.75;;;6.46;82.05
80798;BME280;70202;52.238;10.680;2024-03-06T00:26:04;100536.19;;;7.05;81.65
80798;BME280;70202;52.238;10.680;2024-03-06T00:27:05;100533.50;;;7.04;81.52
80798;BME280;70202;52.238;10.680;2024-03-06T00:28:06;100430.91;;;6.46;81.46
80798;BME280;70202;52.238;10.680;2024-03-06T00:29:06;100486.25;;;6.76;81.79
80798;BME280;70202;52.238;10.680;2024-03-06T00:30:07;100527.25;;;7.01;81.84
80798;BME280;70202;52.238;10.680;2024-03-06T00:31:07;100535.28;;;7.05;81.50
80798;BME280;70202;52.238;10.680;2024-03-06T00:32:08;100525.53;;;6.97;81.51
80798;BME280;70202;52.238;10.680;2024-03-06T00:33:08;100369.47;;;6.08;81.49
80798;BME280;70202;52.238;10.680;2024-03-06T00:34:09;100449.56;;;6.60;81.07
80798;BME280;70202;52.238;10.680;2024-03-06T00:35:10;100496.00;;;6.85;81.73
80798;BME280;70202;52.238;10.680;2024-03-06T00:36:12;100538.00;;;7.05;81.50
80798;BME280;70202;52.238;10.680;2024-03-06T00:37:12;100532.56;;;7.06;81.24
80798;BME280;70202;52.238;10.680;2024-03-06T00:38:12;100454.19;;;6.55;81.08
80798;BME280;70202;52.238;10.680;2024-03-06T00:39:14;100472.06;;;6.62;81.79
80798;BME280;70202;52.238;10.680;2024-03-06T00:40:17;100451.59;;;6.50;81.37
80798;BME280;70202;52.238;10.680;2024-03-06T00:41:18;100359.69;;;6.01;81.52
80798;BME280;70202;52.238;10.680;2024-03-06T00:42:19;100549.66;;;7.10;81.86
80798;BME280;70202;52.238;10.680;2024-03-06T00:43:19;100531.72;;;7.03;82.10
80798;BME280;70202;52.238;10.680;2024-03-06T00:44:20;100523.72;;;6.96;81.64
80798;BME280;70202;52.238;10.680;2024-03-06T00:45:20;100506.78;;;6.87;81.79
80798;BME280;70202;52.238;10.680;2024-03-06T00:46:21;100471.19;;;6.63;81.95
80798;BME280;70202;52.238;10.680;2024-03-06T00:47:22;100520.16;;;6.94;81.56
80798;BME280;70202;52.238;10.680;2024-03-06T00:48:22;100530.84;;;7.02;81.84
80798;BME280;70202;52.238;10.680;2024-03-06T00:49:23;100521.97;;;6.94;81.58
80798;BME280;70202;52.238;10.680;2024-03-06T00:50:24;100569.41;;;7.15;81.53
80798;BME280;70202;52.238;10.680;2024-03-06T00:51:24;100530.91;;;6.99;81.59
80798;BME280;70202;52.238;10.680;2024-03-06T00:52:24;100548.78;;;7.08;81.43
80798;BME280;70202;52.238;10.680;2024-03-06T00:53:25;100534.53;;;6.98;81.23
80798;BME280;70202;52.238;10.680;2024-03-06T00:54:25;100471.28;;;6.57;81.44
80798;BME280;70202;52.238;10.680;2024-03-06T00:55:25;100479.41;;;6.57;81.97
80798;BME280;70202;52.238;10.680;2024-03-06T00:56:26;100543.41;;;7.06;81.23
80798;BME280;70202;52.238;10.680;2024-03-06T00:57:26;100509.38;;;6.91;81.92
80798;BME280;70202;52.238;10.680;2024-03-06T00:58:26;100495.34;;;6.72;81.65
80798;BME280;70202;52.238;10.680;2024-03-06T00:59:27;100427.38;;;6.43;82.13
80798;BME280;70202;52.238;10.680;2024-03-06T01:00:29;100467.59;;;6.61;81.99
80798;BME280;70202;52.238;10.680;2024-03-06T01:01:30;100561.22;;;7.16;81.53
80798;BME280;70202;52.238;10.680;2024-03-06T01:02:30;100570.13;;;7.23;81.47
80798;BME280;70202;52.238;10.680;2024-03-06T01:03:30;100524.63;;;6.97;82.19
80798;BME280;70202;52.238;10.680;2024-03-06T01:04:31;100577.28;;;7.25;82.02
80798;BME280;70202;52.238;10.680;2024-03-06T01:05:31;100570.97;;;7.26;82.14
80798;BME280;70202;52.238;10.680;2024-03-06T01:06:32;100547.75;;;7.13;82.13
80798;BME280;70202;52.238;10.680;2024-03-06T01:07:33;100550.44;;;7.15;81.25
80798;BME280;70202;52.238;10.680;2024-03-06T01:08:34;100551.28;;;7.17;81.96
80798;BME280;70202;52.238;10.680;2024-03-06T01:09:36;100486.28;;;6.73;81.79
80798;BME280;70202;52.238;10.680;2024-03-06T01:10:36;100567.41;;;7.23;81.94
80798;BME280;70202;52.238;10.680;2024-03-06T01:11:37;100540.59;;;7.11;82.18
80798;BME280;70202;52.238;10.680;2024-03-06T01:12:37;100493.28;;;6.84;81.85
80798;BME280;70202;52.238;10.680;2024-03-06T01:13:37;100480.97;;;6.69;81.44
80798;BME280;70202;52.238;10.680;2024-03-06T01:14:38;100484.47;;;6.75;81.74
80798;BME280;70202;52.238;10.680;2024-03-06T01:15:38;100566.50;;;7.24;81.19
80798;BME280;70202;52.238;10.680;2024-03-06T01:16:39;100546.13;;;7.05;81.46
80798;BME280;70202;52.238;10.680;2024-03-06T01:17:39;100575.47;;;7.26;81.71
80798;BME280;70202;52.238;10.680;2024-03-06T01:18:39;100520.34;;;6.85;81.31
80798;BME280;70202;52.238;10.680;2024-03-06T01:19:40;100463.00;;;6.65;81.98
80798;BME280;70202;52.238;10.680;2024-03-06T01:20:40;100554.13;;;7.09;82.04
80798;BME280;70202;52.238;10.680;2024-03-06T01:21:41;100572.75;;;7.28;81.54
80798;BME280;70202;52.238;10.680;2024-03-06T01:22:41;100578.00;;;7.34;81.90
80798;BME280;70202;52.238;10.680;2024-03-06T01:23:41;100510.31;;;6.90;81.84
80798;BME280;70202;52.238;10.680;2024-03-06T01:24:42;100566.53;;;7.22;81.37
80798;BME280;70202;52.238;10.680;2024-03-06T01:25:42;100556.66;;;7.20;81.82
80798;BME280;70202;52.238;10.680;2024-03-06T01:26:43;100501.34;;;6.87;81.69
80798;BME280;70202;52.238;10.680;2024-03-06T01:27:43;100468.38;;;6.66;81.49
80798;BME280;70202;52.238;10.680;2024-03-06T01:28:43;100567.38;;;7.24;81.43
80798;BME280;70202;52.238;10.680;2024-03-06T01:29:44;100547.72;;;7.15;81.49
80798;BME280;70202;52.238;10.680;2024-03-06T01:30:45;100587.03;;;7.34;81.33
80798;BME280;70202;52.238;10.680;2024-03-06T01:31:45;100585.22;;;7.35;81.46
80798;BME280;70202;52.238;10.680;2024-03-06T01:32:46;100588.94;;;7.31;81.66
80798;BME280;70202;52.238;10.680;2024-03-06T01:33:47;100487.19;;;6.74;81.59
80798;BME280;70202;52.238;10.680;2024-03-06T01:34:47;100564.72;;;7.21;81.35
80798;BME280;70202;52.238;10.680;2024-03-06T01:35:48;100588.84;;;7.34;81.23
80798;BME280;70202;52.238;10.680;2024-03-06T01:36:49;100476.41;;;6.71;80.93
80798;BME280;70202;52.238;10.680;2024-03-06T01:37:49;100528.09;;;7.04;81.18
80798;BME280;70202;52.238;10.680;2024-03-06T01:38:49;100552.22;;;7.16;81.55
80798;BME280;70202;52.238;10.680;2024-03-06T01:39:50;100565.63;;;7.22;81.25
80798;BME280;70202;52.238;10.680;2024-03-06T01:40:50;100412.31;;;6.30;80.94
80798;BME280;70202;52.238;10.680;2024-03-06T01:41:51;100580.78;;;7.32;81.53
80798;BME280;70202;52.238;10.680;2024-03-06T01:42:51;100497.97;;;6.77;80.69
80798;BME280;70202;52.238;10.680;2024-03-06T01:43:51;100474.63;;;6.70;81.14
80798;BME280;70202;52.238;10.680;2024-03-06T01:44:52;100580.00;;;7.25;81.16
80798;BME280;70202;52.238;10.680;2024-03-06T01:45:53;100537.16;;;7.03;80.75
80798;BME280;70202;52.238;10.680;2024-03-06T01:46:53;100388.19;;;6.19;80.98
80798;BME280;70202;52.238;10.680;2024-03-06T01:47:54;100549.84;;;6.99;81.37
80798;BME280;70202;52.238;10.680;2024-03-06T01:48:55;100539.81;;;7.04;81.29
80798;BME280;70202;52.238;10.680;2024-03-06T01:49:56;100576.41;;;7.25;81.01
80798;BME280;70202;52.238;10.680;2024-03-06T01:50:59;100493.63;;;6.68;81.14
80798;BME280;70202;52.238;10.680;2024-03-06T01:52:03;100481.16;;;6.60;80.95
80798;BME280;70202;52.238;10.680;2024-03-06T01:53:03;100493.63;;;6.68;80.97
80798;BME280;70202;52.238;10.680;2024-03-06T01:54:04;100479.19;;;6.68;80.88
80798;BME280;70202;52.238;10.680;2024-03-06T01:55:06;100582.69;;;7.27;81.00
80798;BME280;70202;52.238;10.680;2024-03-06T01:56:08;100485.59;;;6.62;80.79
80798;BME280;70202;52.238;10.680;2024-03-06T01:57:12;100534.63;;;6.93;80.87
80798;BME280;70202;52.238;10.680;2024-03-06T01:58:13;100578.41;;;7.15;81.26
80798;BME280;70202;52.238;10.680;2024-03-06T01:59:15;100576.59;;;7.16;80.97
80798;BME280;70202;52.238;10.680;2024-03-06T02:00:17;100574.81;;;7.15;81.03
80798;BME280;70202;52.238;10.680;2024-03-06T02:01:17;100480.28;;;6.59;80.51
80798;BME280;70202;52.238;10.680;2024-03-06T02:02:18;100496.31;;;6.68;81.18
80798;BME280;70202;52.238;10.680;2024-03-06T02:03:18;100588.25;;;7.19;80.96
80798;BME280;70202;52.238;10.680;2024-03-06T02:04:19;100575.66;;;7.17;80.43
80798;BME280;70202;52.238;10.680;2024-03-06T02:05:20;100463.31;;;6.49;80.65
80798;BME280;70202;52.238;10.680;2024-03-06T02:06:21;100565.84;;;7.11;80.86
80798;BME280;70202;52.238;10.680;2024-03-06T02:07:23;100573.00;;;7.15;81.06
80798;BME280;70202;52.238;10.680;2024-03-06T02:08:24;100560.50;;;7.08;81.01
80798;BME280;70202;52.238;10.680;2024-03-06T02:09:24;100544.47;;;6.97;81.11
80798;BME280;70202;52.238;10.680;2024-03-06T02:10:26;100473.94;;;6.60;81.20
80798;BME280;70202;52.238;10.680;2024-03-06T02:11:27;100577.47;;;7.16;80.97
80798;BME280;70202;52.238;10.680;2024-03-06T02:12:28;100545.22;;;7.06;81.15
80798;BME280;70202;52.238;10.680;2024-03-06T02:13:29;100573.03;;;7.14;81.11
80798;BME280;70202;52.238;10.680;2024-03-06T02:14:30;100540.84;;;6.98;80.63
80798;BME280;70202;52.238;10.680;2024-03-06T02:15:30;100547.91;;;7.06;80.78
80798;BME280;70202;52.238;10.680;2024-03-06T02:16:31;100490.88;;;6.70;80.66
80798;BME280;70202;52.238;10.680;2024-03-06T02:17:31;100576.44;;;7.22;81.11
80798;BME280;70202;52.238;10.680;2024-03-06T02:18:31;100568.41;;;7.19;80.91
80798;BME280;70202;52.238;10.680;2024-03-06T02:20:39;100578.16;;;7.28;81.04
80798;BME280;70202;52.238;10.680;2024-03-06T02:21:40;100529.88;;;7.05;80.88
80798;BME280;70202;52.238;10.680;2024-03-06T02:22:40;100558.41;;;7.21;81.56
80798;BME280;70202;52.238;10.680;2024-03-06T02:23:41;100584.44;;;7.30;81.57
80798;BME280;70202;52.238;10.680;2024-03-06T02:24:44;100588.78;;;7.37;80.79
80798;BME280;70202;52.238;10.680;2024-03-06T02:25:45;100550.28;;;7.21;80.38
80798;BME280;70202;52.238;10.680;2024-03-06T02:26:47;100400.63;;;6.28;80.82
80798;BME280;70202;52.238;10.680;2024-03-06T02:27:48;100496.09;;;6.79;80.52
80798;BME280;70202;52.238;10.680;2024-03-06T02:28:49;100572.69;;;7.31;81.19
80798;BME280;70202;52.238;10.680;2024-03-06T02:29:52;100438.00;;;6.52;80.84
80798;BME280;70202;52.238;10.680;2024-03-06T02:30:52;100523.69;;;6.98;80.71
80798;BME280;70202;52.238;10.680;2024-03-06T02:31:53;100580.81;;;7.29;81.06
80798;BME280;70202;52.238;10.680;2024-03-06T02:32:53;100596.97;;;7.35;80.33
80798;BME280;70202;52.238;10.680;2024-03-06T02:33:53;100572.78;;;7.24;80.18
80798;BME280;70202;52.238;10.680;2024-03-06T02:34:54;100490.72;;;6.78;80.42
80798;BME280;70202;52.238;10.680;2024-03-06T02:35:54;100604.13;;;7.38;80.51
80798;BME280;70202;52.238;10.680;2024-03-06T02:36:55;100577.28;;;7.25;79.94
80798;BME280;70202;52.238;10.680;2024-03-06T02:37:55;100574.72;;;7.19;80.35
80798;BME280;70202;52.238;10.680;2024-03-06T02:38:57;100495.28;;;6.75;80.38
80798;BME280;70202;52.238;10.680;2024-03-06T02:39:57;100553.25;;;7.09;80.28
80798;BME280;70202;52.238;10.680;2024-03-06T02:40:57;100593.53;;;7.25;80.17
80798;BME280;70202;52.238;10.680;2024-03-06T02:41:58;100598.97;;;7.25;80.26
80798;BME280;70202;52.238;10.680;2024-03-06T02:42:58;100598.97;;;7.25;80.12
80798;BME280;70202;52.238;10.680;2024-03-06T02:43:59;100582.06;;;7.14;79.95
80798;BME280;70202;52.238;10.680;2024-03-06T02:44:59;100556.31;;;6.92;80.42
80798;BME280;70202;52.238;10.680;2024-03-06T02:45:59;100516.34;;;6.58;80.49
80798;BME280;70202;52.238;10.680;2024-03-06T02:47:00;100559.94;;;6.91;80.38
80798;BME280;70202;52.238;10.680;2024-03-06T02:48:00;100608.25;;;7.12;80.76
80798;BME280;70202;52.238;10.680;2024-03-06T02:49:01;100543.22;;;6.69;81.01
80798;BME280;70202;52.238;10.680;2024-03-06T02:50:01;100597.41;;;7.14;81.26
80798;BME280;70202;52.238;10.680;2024-03-06T02:51:02;100459.16;;;6.32;81.12
80798;BME280;70202;52.238;10.680;2024-03-06T02:52:03;100541.03;;;6.88;81.29
80798;BME280;70202;52.238;10.680;2024-03-06T02:53:03;100607.19;;;7.21;81.41
80798;BME280;70202;52.238;10.680;2024-03-06T02:54:04;100567.91;;;6.98;81.59
80798;BME280;70202;52.238;10.680;2024-03-06T02:55:05;100575.91;;;7.05;81.13
80798;BME280;70202;52.238;10.680;2024-03-06T02:56:05;100574.19;;;7.00;80.85
80798;BME280;70202;52.238;10.680;2024-03-06T02:57:06;100473.56;;;6.34;80.86
80798;BME280;70202;52.238;10.680;2024-03-06T02:58:07;100426.25;;;6.07;80.74
80798;BME280;70202;52.238;10.680;2024-03-06T02:59:07;100607.25;;;7.18;81.47
80798;BME280;70202;52.238;10.680;2024-03-06T03:00:08;100523.44;;;6.65;81.28
80798;BME280;70202;52.238;10.680;2024-03-06T03:01:13;100616.34;;;7.15;80.84
80798;BME280;70202;52.238;10.680;2024-03-06T03:02:14;100615.41;;;7.16;81.51
80798;BME280;70202;52.238;10.680;2024-03-06T03:03:14;100619.00;;;7.17;81.45
80798;BME280;70202;52.238;10.680;2024-03-06T03:04:14;100587.72;;;7.02;81.48
80798;BME280;70202;52.238;10.680;2024-03-06T03:05:15;100606.44;;;7.13;81.67
80798;BME280;70202;52.238;10.680;2024-03-06T03:06:16;100566.25;;;6.91;81.38
80798;BME280;70202;52.238;10.680;2024-03-06T03:07:16;100603.81;;;7.10;81.05
80798;BME280;70202;52.238;10.680;2024-03-06T03:08:16;100525.34;;;6.60;81.16
80798;BME280;70202;52.238;10.680;2024-03-06T03:09:17;100532.53;;;6.61;82.04
80798;BME280;70202;52.238;10.680;2024-03-06T03:10:17;100531.66;;;6.61;81.66
80798;BME280;70202;52.238;10.680;2024-03-06T03:11:18;100614.47;;;7.17;82.17
80798;BME280;70202;52.238;10.680;2024-03-06T03:12:18;100621.56;;;7.24;81.56
80798;BME280;70202;52.238;10.680;2024-03-06T03:13:19;100531.38;;;6.74;81.87
80798;BME280;70202;52.238;10.680;2024-03-06T03:14:19;100596.50;;;7.13;82.23
80798;BME280;70202;52.238;10.680;2024-03-06T03:15:19;100630.69;;;7.20;82.13
80798;BME280;70202;52.238;10.680;2024-03-06T03:16:20;100618.16;;;7.15;81.80
80798;BME280;70202;52.238;10.680;2024-03-06T03:17:21;100598.44;;;7.07;82.60
80798;BME280;70202;52.238;10.680;2024-03-06T03:18:21;100432.56;;;6.07;81.71
80798;BME280;70202;52.238;10.680;2024-03-06T03:19:22;100528.03;;;6.62;82.38
80798;BME280;70202;52.238;10.680;2024-03-06T03:20:22;100619.13;;;7.11;81.91
80798;BME280;70202;52.238;10.680;2024-03-06T03:21:23;100631.56;;;7.22;82.36
80798;BME280;70202;52.238;10.680;2024-03-06T03:22:23;100602.97;;;7.06;82.88
80798;BME280;70202;52.238;10.680;2024-03-06T03:23:23;100615.50;;;7.12;82.83
80798;BME280;70202;52.238;10.680;2024-03-06T03:24:24;100637.91;;;7.20;82.57
80798;BME280;70202;52.238;10.680;2024-03-06T03:25:25;100605.75;;;7.03;82.35
80798;BME280;70202;52.238;10.680;2024-03-06T03:26:26;100579.91;;;6.85;82.12
80798;BME280;70202;52.238;10.680;2024-03-06T03:27:26;100524.59;;;6.52;82.15
80798;BME280;70202;52.238;10.680;2024-03-06T03:28:27;100549.63;;;6.65;82.38
80798;BME280;70202;52.238;10.680;2024-03-06T03:29:28;100594.16;;;6.95;82.52
80798;BME280;70202;52.238;10.680;2024-03-06T03:30:30;100595.13;;;6.91;82.37
80798;BME280;70202;52.238;10.680;2024-03-06T03:31:32;100550.56;;;6.62;82.72
80798;BME280;70202;52.238;10.680;2024-03-06T03:32:33;100611.34;;;6.94;82.13
80798;BME280;70202;52.238;10.680;2024-03-06T03:33:33;100644.41;;;7.11;82.20
80798;BME280;70202;52.238;10.680;2024-03-06T03:34:34;100611.34;;;6.92;82.40
80798;BME280;70202;52.238;10.680;2024-03-06T03:35:35;100614.97;;;6.91;82.00
80798;BME280;70202;52.238;10.680;2024-03-06T03:36:42;100605.16;;;6.86;82.80
80798;BME280;70202;52.238;10.680;2024-03-06T03:37:43;100618.56;;;6.93;82.80
80798;BME280;70202;52.238;10.680;2024-03-06T03:38:43;100615.03;;;6.90;82.97
80798;BME280;70202;52.238;10.680;2024-03-06T03:39:44;100631.94;;;7.03;82.94
80798;BME280;70202;52.238;10.680;2024-03-06T03:40:45;100624.81;;;6.97;82.82
80798;BME280;70202;52.238;10.680;2024-03-06T03:41:46;100590.88;;;6.78;83.09
80798;BME280;70202;52.238;10.680;2024-03-06T03:42:46;100652.56;;;7.10;83.20
80798;BME280;70202;52.238;10.680;2024-03-06T03:43:47;100624.84;;;6.95;82.46
80798;BME280;70202;52.238;10.680;2024-03-06T03:44:49;100557.13;;;6.49;82.72
80798;BME280;70202;52.238;10.680;2024-03-06T03:45:49;100630.25;;;6.97;83.07
80798;BME280;70202;52.238;10.680;2024-03-06T03:46:50;100543.59;;;6.49;82.39
80798;BME280;70202;52.238;10.680;2024-03-06T03:47:51;100632.06;;;6.95;83.30
80798;BME280;70202;52.238;10.680;2024-03-06T03:48:51;100626.69;;;6.93;82.54
80798;BME280;70202;52.238;10.680;2024-03-06T03:49:51;100655.28;;;7.08;83.21
80798;BME280;70202;52.238;10.680;2024-03-06T03:50:52;100576.88;;;6.54;82.85
80798;BME280;70202;52.238;10.680;2024-03-06T03:51:52;100574.91;;;6.62;82.98
80798;BME280;70202;52.238;10.680;2024-03-06T03:52:53;100550.88;;;6.47;83.44
80798;BME280;70202;52.238;10.680;2024-03-06T03:53:53;100622.25;;;6.88;83.26
80798;BME280;70202;52.238;10.680;2024-03-06T03:54:53;100578.69;;;6.55;83.17
80798;BME280;70202;52.238;10.680;2024-03-06T03:55:54;100542.84;;;6.41;83.69
80798;BME280;70202;52.238;10.680;2024-03-06T03:56:54;100642.84;;;6.98;83.19
80798;BME280;70202;52.238;10.680;2024-03-06T03:57:55;100630.38;;;6.89;83.28
80798;BME280;70202;52.238;10.680;2024-03-06T03:58:56;100550.06;;;6.40;82.84
80798;BME280;70202;52.238;10.680;2024-03-06T03:59:57;100631.31;;;6.88;82.95
80798;BME280;70202;52.238;10.680;2024-03-06T04:00:58;100638.41;;;6.94;83.39
80798;BME280;70202;52.238;10.680;2024-03-06T04:01:59;100556.41;;;6.39;83.43
80798;BME280;70202;52.238;10.680;2024-03-06T04:02:59;100644.81;;;6.90;83.08
80798;BME280;70202;52.238;10.680;2024-03-06T04:04:00;100575.22;;;6.47;83.68
80798;BME280;70202;52.238;10.680;2024-03-06T04:05:00;100456.44;;;5.82;83.28
80798;BME280;70202;52.238;10.680;2024-03-06T04:06:00;100642.06;;;6.91;83.18
80798;BME280;70202;52.238;10.680;2024-03-06T04:07:01;100547.47;;;6.34;83.39
80798;BME280;70202;52.238;10.680;2024-03-06T04:08:02;100650.19;;;6.93;83.73
80798;BME280;70202;52.238;10.680;2024-03-06T04:09:02;100586.88;;;6.50;83.21
80798;BME280;70202;52.238;10.680;2024-03-06T04:10:04;100627.84;;;6.80;83.13
80798;BME280;70202;52.238;10.680;2024-03-06T04:11:06;100650.13;;;6.94;83.73
80798;BME280;70202;52.238;10.680;2024-03-06T04:12:06;100605.53;;;6.67;83.92
80798;BME280;70202;52.238;10.680;2024-03-06T04:13:06;100642.13;;;6.88;83.56
80798;BME280;70202;52.238;10.680;2024-03-06T04:14:07;100473.47;;;5.86;83.71
80798;BME280;70202;52.238;10.680;2024-03-06T04:15:08;100629.63;;;6.81;83.50
80798;BME280;70202;52.238;10.680;2024-03-06T04:16:09;100636.78;;;6.84;83.56
80798;BME280;70202;52.238;10.680;2024-03-06T04:17:09;100614.50;;;6.69;83.80
80798;BME280;70202;52.238;10.680;2024-03-06T04:18:09;100625.28;;;6.72;83.32
80798;BME280;70202;52.238;10.680;2024-03-06T04:19:10;100613.69;;;6.64;83.73
80798;BME280;70202;52.238;10.680;2024-03-06T04:20:10;100618.16;;;6.65;83.75
80798;BME280;70202;52.238;10.680;2024-03-06T04:21:12;100629.88;;;6.66;83.12
80798;BME280;70202;52.238;10.680;2024-03-06T04:22:16;100638.03;;;6.64;83.37
80798;BME280;70202;52.238;10.680;2024-03-06T04:23:18;100651.31;;;6.78;84.26
80798;BME280;70202;52.238;10.680;2024-03-06T04:24:19;100521.00;;;6.00;83.37
80798;BME280;70202;52.238;10.680;2024-03-06T04:25:19;100650.41;;;6.79;83.49
80798;BME280;70202;52.238;10.680;2024-03-06T04:26:19;100647.06;;;6.65;83.53
80798;BME280;70202;52.238;10.680;2024-03-06T04:27:20;100466.59;;;5.66;83.58
80798;BME280;70202;52.238;10.680;2024-03-06T04:28:21;100554.97;;;6.18;83.70
80798;BME280;70202;52.238;10.680;2024-03-06T04:29:21;100608.53;;;6.49;83.33
80798;BME280;70202;52.238;10.680;2024-03-06T04:30:22;100637.25;;;6.59;83.65
80798;BME280;70202;52.238;10.680;2024-03-06T04:31:22;100630.94;;;6.57;83.89
80798;BME280;70202;52.238;10.680;2024-03-06T04:32:23;100606.09;;;6.34;83.78
80798;BME280;70202;52.238;10.680;2024-03-06T04:33:23;100669.34;;;6.79;84.43
80798;BME280;70202;52.238;10.680;2024-03-06T04:34:23;100654.19;;;6.69;83.90
80798;BME280;70202;52.238;10.680;2024-03-06T04:35:24;100665.75;;;6.79;83.90
80798;BME280;70202;52.238;10.680;2024-03-06T04:36:24;100665.72;;;6.82;84.15
80798;BME280;70202;52.238;10.680;2024-03-06T04:37:25;100681.91;;;6.85;84.53
80798;BME280;70202;52.238;10.680;2024-03-06T04:38:26;100639.78;;;6.68;84.14
80798;BME280;70202;52.238;10.680;2024-03-06T04:39:27;100583.69;;;6.24;84.04
80798;BME280;70202;52.238;10.680;2024-03-06T04:40:27;100567.56;;;6.19;84.24
80798;BME280;70202;52.238;10.680;2024-03-06T04:41:29;100678.22;;;6.87;84.38
80798;BME280;70202;52.238;10.680;2024-03-06T04:42:29;100676.41;;;6.88;84.29
80798;BME280;70202;52.238;10.680;2024-03-06T04:43:29;100627.25;;;6.61;83.85
80798;BME280;70202;52.238;10.680;2024-03-06T04:44:33;100602.41;;;6.39;83.89
80798;BME280;70202;52.238;10.680;2024-03-06T04:45:34;100572.00;;;6.23;83.56
80798;BME280;70202;52.238;10.680;2024-03-06T04:46:34;100642.63;;;6.61;83.65
80798;BME280;70202;52.238;10.680;2024-03-06T04:47:35;100636.41;;;6.56;84.21
80798;BME280;70202;52.238;10.680;2024-03-06T04:48:35;100536.47;;;5.92;84.17
80798;BME280;70202;52.238;10.680;2024-03-06T04:49:36;100664.13;;;6.68;84.00
80798;BME280;70202;52.238;10.680;2024-03-06T04:50:36;100677.63;;;6.70;84.22
80798;BME280;70202;52.238;10.680;2024-03-06T04:51:36;100641.81;;;6.54;84.36
80798;BME280;70202;52.238;10.680;2024-03-06T04:52:40;100688.22;;;6.84;84.16
80798;BME280;70202;52.238;10.680;2024-03-06T04:53:41;100686.56;;;6.76;84.08
80798;BME280;70202;52.238;10.680;2024-03-06T04:54:42;100496.31;;;5.66;84.02
80798;BME280;70202;52.238;10.680;2024-03-06T04:55:42;100671.34;;;6.69;84.34
80798;BME280;70202;52.238;10.680;2024-03-06T04:56:43;100613.44;;;6.25;84.77
80798;BME280;70202;52.238;10.680;2024-03-06T04:57:44;100699.13;;;6.81;84.38
80798;BME280;70202;52.238;10.680;2024-03-06T04:58:46;100702.59;;;6.89;84.85
80798;BME280;70202;52.238;10.680;2024-03-06T04:59:46;100711.63;;;6.88;84.35
80798;BME280;70202;52.238;10.680;2024-03-06T05:00:47;100694.47;;;6.87;84.58
80798;BME280;70202;52.238;10.680;2024-03-06T05:01:47;100674.75;;;6.79;84.50
80798;BME280;70202;52.238;10.680;2024-03-06T05:02:47;100713.28;;;6.96;84.58
80798;BME280;70202;52.238;10.680;2024-03-06T05:03:49;100603.41;;;6.32;84.26
80798;BME280;70202;52.238;10.680;2024-03-06T05:04:49;100691.78;;;6.87;84.33
80798;BME280;70202;52.238;10.680;2024-03-06T05:05:50;100635.66;;;6.44;84.64
80798;BME280;70202;52.238;10.680;2024-03-06T05:06:50;100588.22;;;6.25;84.00
80798;BME280;70202;52.238;10.680;2024-03-06T05:07:51;100667.91;;;6.58;84.73
80798;BME280;70202;52.238;10.680;2024-03-06T05:08:52;100619.47;;;6.43;84.24
80798;BME280;70202;52.238;10.680;2024-03-06T05:09:52;100603.41;;;6.34;84.30
80798;BME280;70202;52.238;10.680;2024-03-06T05:10:52;100641.84;;;6.53;84.28
80798;BME280;70202;52.238;10.680;2024-03-06T05:11:53;100635.78;;;6.37;84.31
80798;BME280;70202;52.238;10.680;2024-03-06T05:12:53;100697.22;;;6.86;84.68
80798;BME280;70202;52.238;10.680;2024-03-06T05:13:54;100637.53;;;6.42;84.56
80798;BME280;70202;52.238;10.680;2024-03-06T05:14:55;100621.44;;;6.33;84.75
80798;BME280;70202;52.238;10.680;2024-03-06T05:15:55;100689.28;;;6.76;84.61
80798;BME280;70202;52.238;10.680;2024-03-06T05:16:56;100712.53;;;6.88;84.65
80798;BME280;70202;52.238;10.680;2024-03-06T05:17:56;100681.16;;;6.75;84.76
80798;BME280;70202;52.238;10.680;2024-03-06T05:18:56;100699.97;;;6.83;84.74